Time;durP1;ratioP1;P1;durP2;ratioP2;P2;SDS_P1;SDS_P2;PMS_P1;PMS_P2;Temp;Humidity;BMP_temperature;BMP_pressure;BME280_temperature;BME280_humidity;BME280_pressure;Samples;Min_cycle;Max_cycle;Signal;HPM_P1;HPM_P2
2023/05/23 04:09:10;;;;;;;;;;;;;;;5.87;100.00;99683.75;5300760;23;20428;-86
2023/05/23 04:11:35;;;;;;;;;;;;;;;5.97;100.00;99687.88;4975565;28;19922;-86
2023/05/23 04:14:00;;;;;;;;;;;;;;;5.98;100.00;99684.34;4974043;28;19918;-86
2023/05/23 04:16:26;;;;;;;;;;;;;;;5.88;100.00;99688.06;4975291;28;19961;-85
2023/05/23 04:18:51;;;;;;;;;;;;;;;5.92;100.00;99700.25;4957629;28;19918;-87
2023/05/23 04:21:16;;;;;;;;;;;;;;;5.81;100.00;99703.16;4958013;28;20391;-89
2023/05/23 04:23:42;;;;;;;;;;;;;;;5.91;100.00;99711.66;4973998;28;19918;-92
2023/05/23 04:26:08;;;;;;;;;;;;;;;5.81;100.00;99705.78;4975489;28;19945;-94
2023/05/23 04:28:34;;;;;;;;;;;;;;;6.00;100.00;99693.06;4974647;28;20362;-94
2023/05/23 04:31:01;;;;;;;;;;;;;;;6.07;100.00;99703.44;4978522;28;19949;-88
2023/05/23 04:33:27;;;;;;;;;;;;;;;6.02;100.00;99707.97;4977942;28;20005;-91
2023/05/23 04:44:01;;;;;;;;;;;;;;;5.98;100.00;99715.03;4385211;23;19938;-86
2023/05/23 04:46:32;;;;;;;;;;;;;;;5.96;100.00;99719.44;4914586;29;20418;-92
2023/05/23 04:48:59;;;;;;;;;;;;;;;6.08;100.00;99728.81;4898291;29;19927;-89
2023/05/23 04:51:44;;;;;;;;;;;;;;;5.98;100.00;99736.09;4899447;29;19926;-93
2023/05/23 04:54:09;;;;;;;;;;;;;;;6.04;100.00;99735.06;4913961;29;19976;-91
2023/05/23 04:56:45;;;;;;;;;;;;;;;;;;;;;
2023/05/23 04:59:19;;;;;;;;;;;;;;;6.07;100.00;99740.25;4915715;29;19927;-90
2023/05/23 05:01:47;;;;;;;;;;;;;;;6.02;100.00;99742.16;4914696;29;19958;-87
2023/05/23 05:04:15;;;;;;;;;;;;;;;6.02;100.00;99744.78;4914685;29;20005;-88
2023/05/23 05:06:51;;;;;;;;;;;;;;;5.94;100.00;99743.16;4913504;29;20421;-87
2023/05/23 05:09:26;;;;;;;;;;;;;;;6.00;100.00;99748.31;4913179;29;20014;-88
2023/05/23 05:11:54;;;;;;;;;;;;;;;6.16;100.00;99745.31;4947751;28;20358;-87
2023/05/23 05:14:20;;;;;;;;;;;;;;;6.12;100.00;99743.63;4956164;28;19957;-87
2023/05/23 05:16:45;;;;;;;;;;;;;;;6.11;100.00;99747.16;4956563;28;20009;-88
2023/05/23 05:19:13;;;;;;;;;;;;;;;6.14;100.00;99749.72;4956455;28;20004;-88
2023/05/23 05:21:39;;;;;;;;;;;;;;;6.18;100.00;99749.59;4956495;28;19965;-88
2023/05/23 05:24:12;;;;;;;;;;;;;;;6.13;100.00;99745.38;4972505;28;20008;-87
2023/05/23 05:26:37;;;;;;;;;;;;;;;6.18;100.00;99743.47;4956418;28;19922;-88
2023/05/23 05:29:05;;;;;;;;;;;;;;;6.15;100.00;99739.16;4973751;28;19957;-87
2023/05/23 05:31:31;;;;;;;;;;;;;;;6.20;100.00;99739.03;4971403;28;20448;-88
2023/05/23 05:33:56;;;;;;;;;;;;;;;6.21;100.00;99743.41;4956181;28;19962;-88
2023/05/23 05:36:31;;;;;;;;;;;;;;;6.29;100.00;99740.59;4973648;28;20358;-88
2023/05/23 05:38:56;;;;;;;;;;;;;;;6.34;100.00;99747.44;4971976;28;19961;-87
2023/05/23 05:41:22;;;;;;;;;;;;;;;6.34;100.00;99749.22;4956501;28;20008;-87
2023/05/23 05:43:47;;;;;;;;;;;;;;;6.39;100.00;99749.94;4973463;28;20077;-86
2023/05/23 05:46:12;;;;;;;;;;;;;;;6.36;100.00;99756.16;4973588;28;19922;-87
2023/05/23 05:48:38;;;;;;;;;;;;;;;6.41;100.00;99760.44;4973482;28;19918;-87
2023/05/23 05:51:03;;;;;;;;;;;;;;;6.39;100.00;99763.13;4973546;28;19948;-86
2023/05/23 05:53:28;;;;;;;;;;;;;;;6.40;100.00;99758.69;4972259;28;19925;-86
2023/05/23 05:55:54;;;;;;;;;;;;;;;6.45;100.00;99764.72;4973037;28;19922;-86
2023/05/23 05:58:22;;;;;;;;;;;;;;;6.45;100.00;99756.84;4973368;28;19925;-87
2023/05/23 06:00:47;;;;;;;;;;;;;;;6.48;100.00;99765.50;4973303;28;19922;-87
2023/05/23 06:03:13;;;;;;;;;;;;;;;6.46;100.00;99756.81;4972655;28;20336;-87
2023/05/23 06:05:38;;;;;;;;;;;;;;;6.56;100.00;99754.78;4973303;28;19922;-86
2023/05/23 06:08:03;;;;;;;;;;;;;;;6.57;100.00;99753.84;4971221;28;20419;-86
2023/05/23 06:10:29;;;;;;;;;;;;;;;6.53;100.00;99757.50;4973120;28;19918;-86
2023/05/23 06:12:54;;;;;;;;;;;;;;;6.64;100.00;99762.47;4973219;28;19922;-86
2023/05/23 06:15:19;;;;;;;;;;;;;;;6.61;100.00;99763.41;4955858;28;19918;-86
2023/05/23 06:17:45;;;;;;;;;;;;;;;6.61;100.00;99762.56;4973179;28;19925;-86
2023/05/23 06:20:11;;;;;;;;;;;;;;;6.58;100.00;99760.84;4973136;28;19972;-86
2023/05/23 06:22:36;;;;;;;;;;;;;;;6.57;100.00;99767.03;4972023;28;19922;-86
2023/05/23 07:56:21;;;;;;;;;;;;;;;6.58;100.00;99853.00;5412184;23;20308;-85
2023/05/23 07:58:47;;;;;;;;;;;;;;;6.58;100.00;99852.16;4993627;28;19941;-86
2023/05/23 08:01:12;;;;;;;;;;;;;;;14.45;100.00;99841.78;4975866;28;19925;-83
2023/05/23 08:03:37;;;;;;;;;;;;;;;9.17;100.00;99850.38;4991246;28;19922;-83
2023/05/23 08:06:03;;;;;;;;;;;;;;;8.41;100.00;99859.16;4990626;28;20004;-83
2023/05/23 08:08:28;;;;;;;;;;;;;;;8.09;100.00;99864.56;4989682;28;19922;-83
2023/05/23 08:10:53;;;;;;;;;;;;;;;7.88;100.00;99863.47;4973891;28;20541;-84
2023/05/23 08:13:18;;;;;;;;;;;;;;;7.64;100.00;99865.03;4975630;28;19925;-83
2023/05/23 08:15:44;;;;;;;;;;;;;;;7.69;100.00;99860.50;4976459;28;19926;-84
2023/05/23 08:18:10;;;;;;;;;;;;;;;7.69;100.00;99865.78;4976943;28;20377;-86
2023/05/23 08:20:42;;;;;;;;;;;;;;;10.46;100.00;99854.31;4970805;28;19961;-91
2023/05/23 08:23:07;;;;;;;;;;;;;;;14.45;100.00;99849.78;4975047;28;19928;-86
2023/05/23 08:25:37;;;;;;;;;;;;;;;15.23;100.00;99842.47;4988798;28;20381;-90
2023/05/23 08:28:02;;;;;;;;;;;;;;;9.70;100.00;99849.34;4990204;28;19922;-90
2023/05/23 08:30:28;;;;;;;;;;;;;;;8.33;100.00;99868.19;4992927;28;20388;-88
2023/05/23 08:32:59;;;;;;;;;;;;;;;7.95;100.00;99874.69;4994130;28;19922;-87
2023/05/23 08:35:34;;;;;;;;;;;;;;;7.76;100.00;99877.00;4972284;28;20325;-91
2023/05/23 08:38:09;;;;;;;;;;;;;;;7.60;100.00;99877.47;4993324;28;19926;-89
2023/05/23 08:40:35;;;;;;;;;;;;;;;7.51;100.00;99876.84;4990739;28;19922;-89
2023/05/23 08:43:03;;;;;;;;;;;;;;;7.34;100.00;99874.69;4975853;28;20019;-89
2023/05/23 08:45:38;;;;;;;;;;;;;;;7.33;100.00;99879.13;4971784;28;19936;-89
2023/05/23 08:48:07;;;;;;;;;;;;;;;7.19;100.00;99881.25;4990492;28;19922;-87
2023/05/23 08:50:34;;;;;;;;;;;;;;;7.14;100.00;99877.91;4987826;28;19921;-90
2023/05/23 08:53:22;;;;;;;;;;;;;;;7.13;100.00;99881.44;4974223;28;19926;-88
2023/05/23 08:56:15;;;;;;;;;;;;;;;7.11;100.00;99873.56;4987897;28;19940;-91
2023/05/23 08:58:41;;;;;;;;;;;;;;;7.06;100.00;99881.59;4969038;28;19929;-89
2023/05/23 09:01:23;;;;;;;;;;;;;;;7.04;100.00;99882.56;4971233;28;20313;-90
2023/05/23 09:04:09;;;;;;;;;;;;;;;;;;;;;
2023/05/23 09:06:44;;;;;;;;;;;;;;;7.06;100.00;99875.47;4971868;28;19918;-89
2023/05/23 09:09:15;;;;;;;;;;;;;;;6.99;100.00;99880.03;4971424;28;20313;-90
2023/05/23 09:11:44;;;;;;;;;;;;;;;6.95;100.00;99883.66;4968328;28;19926;-88
2023/05/23 09:14:19;;;;;;;;;;;;;;;6.96;100.00;99885.38;4954983;28;20500;-90
2023/05/23 09:16:46;;;;;;;;;;;;;;;6.87;100.00;99888.25;4954201;28;19933;-89
2023/05/23 09:19:22;;;;;;;;;;;;;;;6.93;100.00;99880.19;4957018;28;20352;-91
2023/05/23 09:21:57;;;;;;;;;;;;;;;;;;;;;
2023/05/23 09:24:34;;;;;;;;;;;;;;;6.88;100.00;99882.94;4950915;28;20370;-89
2023/05/23 09:27:00;;;;;;;;;;;;;;;15.00;100.00;99872.38;4927495;29;20013;-88
2023/05/23 09:29:53;;;;;;;;;;;;;;;;;;;;;
2023/05/23 09:32:39;;;;;;;;;;;;;;;7.96;100.00;99892.22;4948354;28;20281;-91
2023/05/23 09:35:17;;;;;;;;;;;;;;;7.63;100.00;99892.34;4934534;29;20025;-90
2023/05/23 09:37:54;;;;;;;;;;;;;;;7.39;100.00;99888.63;4951114;28;19950;-86
2023/05/23 09:40:23;;;;;;;;;;;;;;;7.28;100.00;99891.56;4934764;28;20397;-91
2023/05/23 09:43:16;;;;;;;;;;;;;;;7.12;100.00;99890.25;4936042;29;19922;-92
2023/05/23 09:46:04;;;;;;;;;;;;;;;;;;;;;
2023/05/23 09:48:55;;;;;;;;;;;;;;;7.02;100.00;99892.25;4973815;28;20372;-90
2023/05/23 09:51:47;;;;;;;;;;;;;;;;;;;;;
2023/05/23 10:00:43;;;;;;;;;;;;;;;6.92;100.00;99894.25;4880398;29;20416;-92
2023/05/23 10:03:36;;;;;;;;;;;;;;;6.91;100.00;99895.19;4964372;28;20404;-92
2023/05/23 10:06:35;;;;;;;;;;;;;;;6.89;100.00;99895.22;4948926;28;19922;-92
2023/05/23 10:09:21;;;;;;;;;;;;;;;;;;;;;
2023/05/23 10:11:52;;;;;;;;;;;;;;;6.85;100.00;99897.97;4972531;28;20002;-90
2023/05/23 10:14:19;;;;;;;;;;;;;;;6.74;100.00;99900.88;4973580;28;19926;-92
2023/05/23 10:17:16;;;;;;;;;;;;;;;6.75;100.00;99901.72;4956913;28;19929;-93
2023/05/23 10:20:07;;;;;;;;;;;;;;;6.77;100.00;99902.59;4972030;28;20396;-91
2023/05/23 10:22:37;;;;;;;;;;;;;;;6.85;100.00;99904.09;4972936;28;19956;-92
2023/05/23 10:25:35;;;;;;;;;;;;;;;;;;;;;
2023/05/23 10:28:03;;;;;;;;;;;;;;;6.83;100.00;99905.91;4970861;28;19922;-91
2023/05/23 10:33:48;;;;;;;;;;;;;;;6.77;100.00;99905.22;4962737;28;20268;-92
2023/05/23 10:36:50;;;;;;;;;;;;;;;;;;;;;
2023/05/23 10:49:05;;;;;;;;;;;;;;;6.61;100.00;99916.13;4824303;29;20389;-91
2023/05/23 10:55:36;;;;;;;;;;;;;;;;;;;;;
2023/05/23 10:58:19;;;;;;;;;;;;;;;;;;;;;
2023/05/23 11:01:25;;;;;;;;;;;;;;;;;;;;;
2023/05/23 11:04:20;;;;;;;;;;;;;;;6.70;100.00;99913.28;4876790;29;19924;-90
2023/05/23 11:06:48;;;;;;;;;;;;;;;6.71;100.00;99925.50;4872995;29;20462;-88
2023/05/23 11:09:23;;;;;;;;;;;;;;;;;;;;;
2023/05/23 11:14:37;;;;;;;;;;;;;;;6.77;100.00;99929.78;4960236;28;20329;-92
2023/05/23 11:26:38;;;;;;;;;;;;;;;6.72;100.00;99927.25;4841462;29;20032;-92
2023/05/23 11:29:38;;;;;;;;;;;;;;;6.71;100.00;99922.88;4891603;29;19920;-94
2023/05/23 11:32:46;;;;;;;;;;;;;;;;;;;;;
2023/05/23 11:44:37;;;;;;;;;;;;;;;6.77;100.00;99910.47;4870423;29;19919;-92
2023/05/23 11:47:07;;;;;;;;;;;;;;;6.68;100.00;99915.06;4842649;29;20042;-93
2023/05/23 11:50:05;;;;;;;;;;;;;;;;;;;;;
2023/05/23 11:59:22;;;;;;;;;;;;;;;6.60;100.00;99908.25;4884643;29;19931;-93
2023/05/23 12:07:52;;;;;;;;;;;;;;;6.69;100.00;99908.03;5175074;23;19926;-91
2023/05/23 12:14:46;;;;;;;;;;;;;;;6.51;100.00;99901.44;4898954;29;19946;-94
2023/05/23 12:20:07;;;;;;;;;;;;;;;6.61;100.00;99910.84;4843194;29;19939;-91
2023/05/23 12:22:55;;;;;;;;;;;;;;;6.70;100.00;99918.53;4825457;29;19929;-93
2023/05/23 12:27:54;;;;;;;;;;;;;;;6.75;100.00;99917.53;5248817;23;19938;-91
2023/05/23 12:30:23;;;;;;;;;;;;;;;6.61;100.00;99916.13;4956829;29;19922;-92
2023/05/23 12:32:50;;;;;;;;;;;;;;;6.57;100.00;99913.59;4941018;29;19929;-92
2023/05/23 12:38:40;;;;;;;;;;;;;;;6.58;100.00;99920.59;4879122;29;20011;-93
2023/05/23 12:41:18;;;;;;;;;;;;;;;6.54;100.00;99919.78;4877084;29;20376;-92
2023/05/23 12:50:25;;;;;;;;;;;;;;;6.57;100.00;99914.44;4814249;29;19920;-93
2023/05/23 13:03:12;;;;;;;;;;;;;;;;;;;;;
2023/05/23 14:18:34;;;;;;;;;;;;;;;;;;;;;
2023/05/23 14:53:15;;;;;;;;;;;;;;;6.57;100.00;99909.19;6300078;22;19919;-93
2023/05/23 15:01:36;;;;;;;;;;;;;;;6.59;100.00;99906.53;6291304;22;19919;-91
2023/05/23 15:24:13;;;;;;;;;;;;;;;6.69;100.00;99902.78;6264141;22;19911;-90
2023/05/23 15:26:55;;;;;;;;;;;;;;;6.57;100.00;99903.06;6305847;22;20326;-93
2023/05/23 15:32:26;;;;;;;;;;;;;;;6.59;100.00;99901.25;6264323;22;20293;-90
2023/05/23 15:53:33;;;;;;;;;;;;;;;;;;;;;
2023/05/23 16:20:44;;;;;;;;;;;;;;;;;;;;;
2023/05/23 17:50:23;;;;;;;;;;;;;;;;;;;;;
2023/05/23 17:53:44;;;;;;;;;;;;;;;;;;;;;
2023/05/23 17:56:57;;;;;;;;;;;;;;;;;;;;;
2023/05/23 18:51:37;;;;;;;;;;;;;;;6.22;100.00;99953.00;6307423;22;19922;-94
